»·PEaware :: N13M KSNA-KPSP

N13M :: KSNA-KPSP

FLIGHT INFORMATION

Flight Status: Arrived
Operator: Privately registered:
United States
More flights under this callsign
Pilot: Zhuojun Y. (28503)
Aircraft: SOCATA TBM-900
(TBM9)
More flights by this aircraft type
Origin: KSNA John Wayne-Orange Co
United States
Destination: KPSP Palm Springs Intl
United States
More flights between these airports :: More routes between these airports
Route: + SLI V64 TRM
File this flight plan on PilotEdge
Remarks:
Altitude:
(Current/Filed)
15,000ft
Speed:
(Current/Filed)
220kts
Departed: 11-Jul-20 07:27 AM
Arrived: 11-Jul-20 08:02 AM
Distance/Time
Traveled:
69nm/0:35
Distance/Time
To Go:
Arrived

Flight Plot

Page will automatically refresh every two minutes.

Flight plan parsing failed; only flown route is shown


Map Options




Map Legend


Flown Route
Filed Route
Departure Airport
Arrival Airport
Navaid (VOR, NDB)
Fix

Horizontal Profiles

Position Reports

Time Latitude Longitude Heading Altitude Ground
Speed
11-Jul-20 07:06 33.676620 -117.870363 209 59ft 0kts
11-Jul-20 07:07 33.676620 -117.870363 209 59ft 0kts
11-Jul-20 07:08 33.676620 -117.870363 209 59ft 0kts
11-Jul-20 07:09 33.676620 -117.870363 209 59ft 0kts
11-Jul-20 07:10 33.676620 -117.870363 209 59ft 0kts
11-Jul-20 07:11 33.676620 -117.870363 209 59ft 0kts
11-Jul-20 07:12 33.676620 -117.870363 209 59ft 0kts
11-Jul-20 07:13 33.676620 -117.870363 209 59ft 0kts
11-Jul-20 07:14 33.676620 -117.870363 209 59ft 0kts
11-Jul-20 07:15 33.676620 -117.870363 209 59ft 0kts
11-Jul-20 07:16 33.676620 -117.870363 209 59ft 0kts
11-Jul-20 07:17 33.676620 -117.870363 209 59ft 0kts
11-Jul-20 07:18 33.676620 -117.870363 209 59ft 0kts
11-Jul-20 07:19 33.676620 -117.870363 209 59ft 0kts
11-Jul-20 07:20 33.675842 -117.870271 40 59ft 7kts
11-Jul-20 07:21 33.677548 -117.869157 27 59ft 14kts
11-Jul-20 07:22 33.681509 -117.866833 26 59ft 8kts
11-Jul-20 07:23 33.681907 -117.866194 85 59ft 0kts
11-Jul-20 07:24 33.681907 -117.866194 85 59ft 0kts
11-Jul-20 07:25 33.681907 -117.866194 85 59ft 0kts
11-Jul-20 07:26 33.677830 -117.867488 206 59ft 77kts
11-Jul-20 07:27 33.649646 -117.882537 190 1431ft 142kts
11-Jul-20 07:28 33.603900 -117.889801 185 2983ft 170kts
11-Jul-20 07:29 33.556534 -117.893474 186 4728ft 169kts
11-Jul-20 07:30 33.540215 -117.857018 81 6825ft 145kts
11-Jul-20 07:31 33.545587 -117.812677 81 8986ft 145kts
11-Jul-20 07:32 33.552078 -117.758766 81 11118ft 180kts
11-Jul-20 07:33 33.559495 -117.697225 81 12935ft 202kts
11-Jul-20 07:34 33.568752 -117.620376 81 12934ft 251kts
11-Jul-20 07:35 33.578855 -117.536898 81 13527ft 239kts
11-Jul-20 07:36 33.587888 -117.462541 81 14927ft 227kts
11-Jul-20 07:37 33.597712 -117.381631 81 14925ft 259kts
11-Jul-20 07:38 33.609094 -117.287991 81 13579ft 295kts
11-Jul-20 07:39 33.620899 -117.191477 81 12905ft 282kts
11-Jul-20 07:40 33.631692 -117.103422 81 12907ft 274kts
11-Jul-20 07:41 33.642789 -117.012999 81 12908ft 273kts
11-Jul-20 07:42 33.660024 -116.925922 71 12909ft 273kts
11-Jul-20 07:43 33.686652 -116.842889 87 12880ft 273kts
11-Jul-20 07:44 33.679774 -116.752099 95 12908ft 273kts
11-Jul-20 07:45 33.672046 -116.661512 95 12908ft 273kts
11-Jul-20 07:46 33.664193 -116.570185 95 12908ft 273kts
11-Jul-20 07:47 33.656248 -116.478598 95 12908ft 273kts
11-Jul-20 07:48 33.648296 -116.387697 95 12908ft 273kts
11-Jul-20 07:49 33.640221 -116.296182 96 12908ft 273kts
11-Jul-20 07:50 33.675609 -116.243408 338 11596ft 248kts
11-Jul-20 07:51 33.706447 -116.310971 291 9941ft 240kts
11-Jul-20 07:52 33.730953 -116.386053 291 7607ft 241kts
11-Jul-20 07:53 33.758472 -116.457052 312 4921ft 236kts
11-Jul-20 07:54 33.807632 -116.490224 339 2919ft 207kts
11-Jul-20 07:55 33.851012 -116.525100 324 1748ft 164kts
11-Jul-20 07:56 33.836295 -116.546583 167 1654ft 166kts
11-Jul-20 07:57 33.797505 -116.516024 139 1704ft 150kts
11-Jul-20 07:58 33.781543 -116.475892 62 1550ft 141kts
11-Jul-20 07:59 33.805179 -116.484902 315 978ft 96kts
11-Jul-20 08:00 33.824560 -116.503121 322 415ft 64kts
11-Jul-20 08:01 33.829611 -116.507237 2 430ft 10kts
11-Jul-20 08:02 33.830362 -116.507209 359 432ft 5kts
11-Jul-20 08:03 33.830405 -116.506664 147 431ft 14kts
11-Jul-20 08:04 33.824916 -116.501808 143 413ft 15kts
11-Jul-20 08:05 33.820619 -116.497960 143 404ft 26kts
11-Jul-20 08:06 33.821371 -116.496303 322 395ft 8kts
11-Jul-20 08:07 33.823135 -116.497223 57 397ft 3kts
11-Jul-20 08:08 33.823194 -116.497031 97 397ft 0kts
11-Jul-20 08:09 33.823194 -116.497031 97 397ft 0kts
11-Jul-20 08:10 33.823194 -116.497031 97 397ft 0kts
11-Jul-20 08:11 33.823194 -116.497031 97 397ft 0kts
11-Jul-20 08:12 33.823194 -116.497031 97 397ft 0kts

Navigation Log

Ident Type
Flight plan parsing failed, navigation log unavailable